Detall de PIREP

Printer-friendly versionPDF version

[2015/05/17 06:11:00]
Flight IATA:CT2112
Pilot Number:041
Company ICAO:CAT
Aircraft Type:BE20/A
PAX:4
Departing Airport: LEVC
Destination Airport: LEZL
Alternate Airport:LEMG
Online: VATSIM
Route:ASTRO B28 VIBAS
Flight Level:FL150
No Slew and time accel
No pause
Crash detect
Detect pilot in Cockpit between each 30 and 45 minutes
06:11 Zero fuel Weight: 8738 Lbs, Fuel Weight: 3677 Lbs
06:11 VATSIM:LEVC 170530Z VRB02KT CAVOK 14/06 Q1023 NOSIG
06:11 VATSIM:LEZL 170530Z 05006KT CAVOK 16/08 Q1019 NOSIG
06:12 VOICE CATALONIAN
06:16 Parking Brakes off
06:21 Take-off
06:21 Take off Weight: 12381 Lbs
06:21 Wind: 066º @ 001 Knots Heading: 114º
06:21 POS N39º 29´ 33´´ W000º 29´ 26´´
06:21 Gear Up: 126 Knots
06:21 Flaps:1 at 126 Knots
06:21 Flaps:0 at 134 Knots
06:33 TOC
06:33 Fuel Weight: 3482 Lb
06:36 Wind:270º@022 Knots Heading: 235º Ground Speed: 224 Knots Altitude 15295 ft
06:51 Wind:270º@022 Knots Heading: 235º Ground Speed: 227 Knots Altitude 15291 ft
07:06 Wind:227º@012 Knots Heading: 225º Ground Speed: 237 Knots Altitude 15265 ft
07:20 TOD
07:20 Fuel Weight: 2961 Lb
07:21 Wind:245º@005 Knots Heading: 271º Ground Speed: 239 Knots Altitude 14442 ft
07:36 Wind:058º@003 Knots Heading: 270º Ground Speed: 210 Knots Altitude 2972 ft
07:43 Flaps:1 at 179 Knots
07:43 Gear Down: 170 Knots
07:43 Flaps:2 at 165 Knots
07:44 TouchDown:Rate -122 ft/min Speed: 116 Knots
07:44 Flaps:1 at 105 Knots
07:44 Flaps:0 at 81 Knots
07:44 VATSIM:LEZL 170700Z 06006KT 030V090 CAVOK 21/05 Q1019 NOSIG
07:44 Land
07:44 Wind:055º@007 Knots
07:44 Heading: 273º
07:44 Flight Duration: 01:23
07:44 Landing Weight: 11516 Lbs
07:44 POS N37º 25´ 05´´ W005º 53´ 28´´
07:46 Parking brakes on
07:46 Block to Block Duration: 01:30
07:46 Final Fuel: 2773 Lbls
07:46 Spent Fuel: 903 Lbls
07:46 Flight Length: 305 NM
07:46 TOD Land Length: 87 NM

Exportar CSV

Powered by Drupal - Modified by Danger4k